Time;durP1;ratioP1;P1;durP2;ratioP2;P2;SDS_P1;SDS_P2;PMS_P1;PMS_P2;Temp;Humidity;BMP_temperature;BMP_pressure;BME280_temperature;BME280_humidity;BME280_pressure;Samples;Min_cycle;Max_cycle;Signal;HPM_P1;HPM_P2
2023/12/21 00:00:20;;;;;;;337.05;162.23;;;179.70;2252.80;;;;;;5044732;28;20021;-63
2023/12/21 00:02:46;;;;;;;334.30;145.50;;;179.70;2252.80;;;;;;5034265;28;20035;-67
2023/12/21 00:05:12;;;;;;;419.30;180.65;;;179.70;2252.80;;;;;;5041860;28;20029;-63
2023/12/21 00:07:37;;;;;;;465.50;198.93;;;179.80;2252.80;;;;;;5046476;28;20029;-64
2023/12/21 00:10:04;;;;;;;404.50;184.13;;;179.80;2252.80;;;;;;5041543;28;20387;-63
2023/12/21 00:12:29;;;;;;;687.05;373.75;;;179.80;2252.80;;;;;;5044297;28;20029;-63
2023/12/21 00:14:56;;;;;;;238.07;101.28;;;179.80;2252.80;;;;;;5044487;28;20025;-64
2023/12/21 00:17:21;;;;;;;441.15;203.40;;;179.90;2252.80;;;;;;5042812;28;20040;-64
2023/12/21 00:19:47;;;;;;;74.38;32.30;;;179.90;2252.80;;;;;;5038627;28;20382;-64
2023/12/21 00:22:13;;;;;;;476.73;219.70;;;179.90;2252.80;;;;;;5035075;28;20039;-64
2023/12/21 00:24:38;;;;;;;61.65;28.05;;;179.90;2252.80;;;;;;5045206;28;20414;-65
2023/12/21 00:27:04;;;;;;;22.05;12.38;;;179.90;2252.80;;;;;;5049294;28;20017;-65
2023/12/21 00:29:30;;;;;;;30.25;14.40;;;179.80;2252.80;;;;;;5052949;28;20112;-65
2023/12/21 00:31:56;;;;;;;32.83;17.17;;;179.90;2252.80;;;;;;5052690;28;20056;-65
2023/12/21 00:34:22;;;;;;;24.83;15.27;;;179.90;2252.80;;;;;;5050045;28;20067;-65
2023/12/21 00:36:47;;;;;;;27.50;15.43;;;179.70;2252.80;;;;;;5048147;28;20041;-66
2023/12/21 00:39:13;;;;;;;271.98;109.55;;;179.90;2252.80;;;;;;5051853;28;20225;-64
2023/12/21 00:41:39;;;;;;;140.90;59.65;;;180.00;2252.80;;;;;;5050207;28;20045;-68
2023/12/21 00:44:05;;;;;;;208.25;84.10;;;180.00;2252.80;;;;;;5052665;28;20021;-63
2023/12/21 00:46:30;;;;;;;31.50;18.40;;;180.10;2252.80;;;;;;5051588;28;20024;-68
2023/12/21 00:48:56;;;;;;;90.53;40.42;;;180.10;2252.80;;;;;;5051440;28;20032;-68
2023/12/21 00:51:22;;;;;;;74.97;32.47;;;180.10;2252.80;;;;;;5052741;28;20492;-68
2023/12/21 00:53:47;;;;;;;43.40;20.35;;;180.10;2252.80;;;;;;5052285;28;20061;-67
2023/12/21 00:56:13;;;;;;;306.52;129.35;;;180.00;2252.80;;;;;;5052496;28;20450;-66
2023/12/21 00:58:39;;;;;;;305.52;133.10;;;180.00;2252.80;;;;;;5052347;28;20101;-64
2023/12/21 01:01:05;;;;;;;323.08;140.35;;;180.10;2252.80;;;;;;5051064;28;20021;-63
2023/12/21 01:03:31;;;;;;;36.47;17.73;;;180.10;2252.80;;;;;;5052456;28;20429;-67
2023/12/21 01:05:56;;;;;;;66.93;30.95;;;204.90;2252.80;;;;;;5052168;28;20375;-63
2023/12/21 01:08:22;;;;;;;54.50;25.15;;;204.90;2252.80;;;;;;5051992;28;20029;-63
2023/12/21 01:10:48;;;;;;;19.23;9.85;;;204.90;2252.80;;;;;;5052439;28;20029;-69
2023/12/21 01:13:14;;;;;;;24.02;13.90;;;204.90;2252.80;;;;;;5051945;28;20065;-65
2023/12/21 01:15:41;;;;;;;139.05;75.00;;;204.90;2252.80;;;;;;5052233;28;20371;-64
2023/12/21 01:18:06;;;;;;;22.80;11.80;;;204.90;2252.80;;;;;;5052182;28;20033;-65
2023/12/21 01:20:32;;;;;;;64.93;31.90;;;205.00;2252.80;;;;;;5051395;28;20497;-67
2023/12/21 01:22:58;;;;;;;61.92;31.42;;;204.90;2252.80;;;;;;5051694;28;20498;-64
2023/12/21 01:25:23;;;;;;;31.05;18.88;;;204.90;2252.80;;;;;;5051930;28;20371;-64
2023/12/21 01:27:49;;;;;;;15.13;10.77;;;204.90;2252.80;;;;;;5051945;28;20029;-64
2023/12/21 01:30:15;;;;;;;131.27;67.00;;;204.80;2252.80;;;;;;5051716;28;20024;-63
2023/12/21 01:32:41;;;;;;;29.88;16.85;;;204.80;2252.80;;;;;;5051941;28;20387;-64
2023/12/21 01:35:07;;;;;;;13.88;9.77;;;204.90;2252.80;;;;;;5051588;28;20025;-69
2023/12/21 01:37:33;;;;;;;12.68;9.40;;;205.10;2252.80;;;;;;5051508;28;20025;-69
2023/12/21 01:39:59;;;;;;;159.68;84.57;;;204.90;2252.80;;;;;;5051725;28;20032;-64
2023/12/21 01:42:25;;;;;;;76.45;42.53;;;205.00;2252.80;;;;;;5051766;28;20100;-64
2023/12/21 01:44:50;;;;;;;29.50;16.75;;;204.90;2252.80;;;;;;5051458;28;20482;-64
2023/12/21 01:47:17;;;;;;;44.25;24.02;;;204.80;2252.80;;;;;;5050601;28;20028;-64
2023/12/21 01:49:43;;;;;;;58.55;31.80;;;204.90;2252.80;;;;;;5051426;28;20099;-63
2023/12/21 01:52:09;;;;;;;9.73;5.43;;;204.80;2252.80;;;;;;5051204;28;20052;-63
2023/12/21 01:54:36;;;;;;;53.55;30.45;;;204.80;2252.80;;;;;;5051322;28;20493;-63
2023/12/21 01:57:02;;;;;;;27.92;15.45;;;204.90;2252.80;;;;;;5051649;28;20470;-63
2023/12/21 01:59:29;;;;;;;15.05;8.27;;;204.90;2252.80;;;;;;5050897;28;20067;-63
2023/12/21 02:01:56;;;;;;;13.27;6.80;;;205.00;2252.80;;;;;;5051379;28;20029;-63
2023/12/21 02:04:22;;;;;;;198.13;89.88;;;204.90;2252.80;;;;;;5051027;28;20037;-63
2023/12/21 02:06:47;;;;;;;25.60;13.43;;;205.00;2252.80;;;;;;5051018;28;20032;-65
2023/12/21 02:09:13;;;;;;;44.00;19.30;;;205.00;2252.80;;;;;;5050851;28;20044;-63
2023/12/21 02:11:39;;;;;;;12.02;7.20;;;205.10;2252.80;;;;;;5051396;28;20025;-63
2023/12/21 02:14:05;;;;;;;88.88;31.30;;;205.10;2252.80;;;;;;5050906;28;20083;-64
2023/12/21 02:16:37;;;;;;;22.98;12.32;;;204.90;2252.80;;;;;;5051515;28;20017;-63
2023/12/21 02:19:04;;;;;;;167.15;56.97;;;204.90;2252.80;;;;;;5051002;28;20025;-65
2023/12/21 02:21:31;;;;;;;35.85;15.38;;;180.10;2252.80;;;;;;5050789;28;20024;-64
2023/12/21 02:23:58;;;;;;;43.05;21.55;;;180.10;2252.80;;;;;;5051171;28;20040;-63
2023/12/21 02:26:24;;;;;;;220.15;93.15;;;180.00;2252.80;;;;;;5050649;28;20017;-64
2023/12/21 02:28:50;;;;;;;39.53;16.33;;;180.10;2252.80;;;;;;5050485;28;20033;-64
2023/12/21 02:31:16;;;;;;;16.25;11.20;;;180.00;2252.80;;;;;;5050762;28;20024;-63
2023/12/21 02:33:42;;;;;;;21.35;10.13;;;180.00;2252.80;;;;;;5050570;28;20063;-64
2023/12/21 02:36:08;;;;;;;16.45;10.32;;;180.10;2252.80;;;;;;5050608;28;20053;-69
2023/12/21 02:38:34;;;;;;;15.63;8.85;;;180.10;2252.80;;;;;;5050407;28;20029;-64
2023/12/21 02:40:59;;;;;;;16.95;10.48;;;180.00;2252.80;;;;;;5050679;28;20025;-64
2023/12/21 02:43:25;;;;;;;13.93;8.32;;;180.00;2252.80;;;;;;5050084;28;20043;-64
2023/12/21 02:45:51;;;;;;;11.25;7.45;;;180.00;2252.80;;;;;;5050693;28;20105;-66
2023/12/21 02:48:17;;;;;;;14.20;6.82;;;180.00;2252.80;;;;;;5050092;28;20024;-66
2023/12/21 02:50:42;;;;;;;9.13;5.70;;;180.00;2252.80;;;;;;5049459;28;20029;-68
2023/12/21 02:53:08;;;;;;;12.07;7.55;;;180.00;2252.80;;;;;;5049897;28;20095;-64
2023/12/21 02:55:35;;;;;;;16.42;10.35;;;179.90;2252.80;;;;;;5050463;28;20379;-65
2023/12/21 02:58:01;;;;;;;14.65;8.85;;;180.00;2252.80;;;;;;5049943;28;20479;-65
2023/12/21 03:00:27;;;;;;;10.93;5.60;;;179.90;2252.80;;;;;;5050337;28;20371;-64
2023/12/21 03:02:53;;;;;;;10.50;6.00;;;179.90;2252.80;;;;;;5052625;28;20025;-64
2023/12/21 03:05:18;;;;;;;27.15;18.75;;;179.80;2252.80;;;;;;5061295;28;20493;-64
2023/12/21 03:07:44;;;;;;;15.75;10.63;;;179.70;2252.80;;;;;;5049767;28;20414;-64
2023/12/21 03:10:10;;;;;;;12.00;7.78;;;179.80;2252.80;;;;;;5050175;28;20025;-65
2023/12/21 03:12:36;;;;;;;10.27;6.80;;;179.80;2252.80;;;;;;5052037;28;20446;-68
2023/12/21 03:15:02;;;;;;;9.85;6.45;;;179.70;2252.80;;;;;;5060712;28;20090;-69
2023/12/21 03:17:28;;;;;;;10.57;6.13;;;179.80;2252.80;;;;;;5049895;28;20025;-64
2023/12/21 03:19:54;;;;;;;12.35;7.53;;;179.90;2252.80;;;;;;5050071;28;20116;-64
2023/12/21 03:22:19;;;;;;;12.85;6.70;;;179.90;2252.80;;;;;;5049495;28;20056;-66
2023/12/21 03:24:46;;;;;;;13.73;6.80;;;179.80;2252.80;;;;;;5049553;28;20032;-64
2023/12/21 03:27:13;;;;;;;9.43;6.35;;;179.60;2252.80;;;;;;5049822;28;20033;-63
2023/12/21 03:29:40;;;;;;;10.30;6.63;;;179.70;2252.80;;;;;;5049194;28;20483;-64
2023/12/21 03:32:06;;;;;;;9.70;6.03;;;179.80;2252.80;;;;;;5049433;28;20032;-64
2023/12/21 03:34:31;;;;;;;10.90;6.15;;;179.70;2252.80;;;;;;5049999;28;20130;-64
2023/12/21 03:36:57;;;;;;;9.50;6.43;;;179.80;2252.80;;;;;;5049272;28;20528;-64
2023/12/21 03:39:23;;;;;;;8.25;5.25;;;179.90;2252.80;;;;;;5049907;28;20032;-69
2023/12/21 03:41:49;;;;;;;6.88;4.07;;;179.90;2252.80;;;;;;5049273;28;20422;-70
2023/12/21 03:44:14;;;;;;;8.50;4.55;;;179.90;2252.80;;;;;;5049113;28;20025;-65
2023/12/21 03:46:40;;;;;;;7.03;3.90;;;179.90;2252.80;;;;;;5049519;28;20051;-65
2023/12/21 03:49:06;;;;;;;6.10;4.03;;;179.90;2252.80;;;;;;5049543;28;20079;-64
2023/12/21 03:51:31;;;;;;;16.17;10.52;;;179.90;2252.80;;;;;;5049347;28;20078;-64
2023/12/21 03:53:57;;;;;;;6.32;4.15;;;179.90;2252.80;;;;;;5048869;28;20053;-64
2023/12/21 03:56:25;;;;;;;14.15;11.25;;;180.00;2252.80;;;;;;5049262;28;20049;-63
2023/12/21 03:58:51;;;;;;;6.15;3.80;;;180.00;2252.80;;;;;;5049301;28;20108;-65
2023/12/21 04:01:26;;;;;;;7.47;6.30;;;180.00;2252.80;;;;;;5048594;28;20063;-64
2023/12/21 04:03:52;;;;;;;25.88;13.60;;;179.60;2252.80;;;;;;5049549;28;20025;-67
2023/12/21 04:06:18;;;;;;;6.18;3.33;;;180.10;2252.80;;;;;;5049141;28;20484;-64
2023/12/21 04:08:43;;;;;;;8.40;4.72;;;179.90;2252.80;;;;;;5049456;28;20025;-64
2023/12/21 04:11:09;;;;;;;7.63;4.93;;;179.70;2252.80;;;;;;5049053;28;20187;-64
2023/12/21 04:13:35;;;;;;;7.57;4.72;;;179.50;2252.80;;;;;;5048882;28;20472;-64
2023/12/21 04:16:01;;;;;;;9.65;4.72;;;179.50;2252.80;;;;;;5049093;28;20021;-64
2023/12/21 04:18:26;;;;;;;8.10;5.30;;;179.50;2252.80;;;;;;5049019;28;20025;-69
2023/12/21 04:20:52;;;;;;;6.28;4.55;;;179.50;2252.80;;;;;;5049209;28;20020;-64
2023/12/21 04:23:18;;;;;;;10.65;5.90;;;179.60;2252.80;;;;;;5048958;28;20029;-63
2023/12/21 04:25:44;;;;;;;7.47;4.63;;;179.50;2252.80;;;;;;5049087;28;20491;-65
2023/12/21 04:28:09;;;;;;;10.65;5.68;;;179.50;2252.80;;;;;;5048968;28;20028;-64
2023/12/21 04:30:35;;;;;;;9.43;5.07;;;179.40;2252.80;;;;;;5048611;28;20080;-65
2023/12/21 04:33:01;;;;;;;9.38;6.55;;;179.50;2252.80;;;;;;5049150;28;20112;-64
2023/12/21 04:35:27;;;;;;;22.85;14.63;;;179.40;2252.80;;;;;;5048603;28;20539;-64
2023/12/21 04:37:53;;;;;;;13.02;8.07;;;179.40;2252.80;;;;;;5049070;28;20021;-64
2023/12/21 04:40:19;;;;;;;5.88;4.18;;;179.30;2252.80;;;;;;5048630;28;20024;-64
2023/12/21 04:42:51;;;;;;;7.93;4.22;;;179.30;2252.80;;;;;;5049179;28;20108;-65
2023/12/21 04:45:18;;;;;;;6.45;3.35;;;179.20;2252.80;;;;;;5048398;28;20027;-64
2023/12/21 04:47:44;;;;;;;6.22;3.60;;;179.30;2252.80;;;;;;5049066;28;20114;-64
2023/12/21 04:50:10;;;;;;;6.68;3.80;;;179.30;2252.80;;;;;;5048695;28;20025;-65
2023/12/21 04:52:36;;;;;;;6.38;3.90;;;179.40;2252.80;;;;;;5048149;28;20139;-63
2023/12/21 04:55:02;;;;;;;8.70;4.38;;;179.30;2252.80;;;;;;5048966;28;20622;-63
2023/12/21 04:57:27;;;;;;;6.47;3.55;;;179.30;2252.80;;;;;;5048449;28;20099;-63
2023/12/21 04:59:53;;;;;;;8.45;4.05;;;179.30;2252.80;;;;;;5048559;28;20029;-63
2023/12/21 05:02:19;;;;;;;9.82;4.75;;;179.30;2252.80;;;;;;5048735;28;20025;-64
2023/12/21 05:04:44;;;;;;;6.68;4.43;;;179.30;2252.80;;;;;;5048878;28;20382;-64
2023/12/21 05:07:10;;;;;;;10.43;5.88;;;179.40;2252.80;;;;;;5048457;28;20421;-64
2023/12/21 05:09:37;;;;;;;12.32;5.55;;;179.40;2252.80;;;;;;5048556;28;20021;-66
2023/12/21 05:12:03;;;;;;;7.38;4.10;;;179.50;2252.80;;;;;;5048678;28;20025;-63
2023/12/21 05:14:29;;;;;;;6.55;4.13;;;179.40;2252.80;;;;;;5051440;28;20035;-63
2023/12/21 05:16:55;;;;;;;7.05;4.32;;;179.40;2252.80;;;;;;5052146;28;20029;-64
2023/12/21 05:19:20;;;;;;;5.57;3.90;;;179.40;2252.80;;;;;;5052414;28;20082;-62
2023/12/21 05:21:46;;;;;;;5.57;3.58;;;179.40;2252.80;;;;;;5051801;28;20082;-63
2023/12/21 05:24:12;;;;;;;7.47;3.80;;;179.40;2252.80;;;;;;5052204;28;20159;-64
2023/12/21 05:26:37;;;;;;;5.72;3.47;;;179.40;2252.80;;;;;;5051998;28;20045;-63
2023/12/21 05:29:03;;;;;;;9.27;4.07;;;179.50;2252.80;;;;;;5051860;28;20021;-64
2023/12/21 05:31:29;;;;;;;7.07;3.50;;;179.60;2252.80;;;;;;5051645;28;20032;-63
2023/12/21 05:33:56;;;;;;;5.38;3.00;;;179.50;2252.80;;;;;;5051509;28;20025;-64
2023/12/21 05:36:23;;;;;;;8.07;3.67;;;179.50;2252.80;;;;;;5051977;28;20029;-62
2023/12/21 05:38:49;;;;;;;4.18;2.70;;;179.50;2252.80;;;;;;5051632;28;20033;-63
2023/12/21 05:41:15;;;;;;;7.97;5.55;;;179.50;2252.80;;;;;;5051339;28;20406;-64
2023/12/21 05:43:42;;;;;;;5.13;3.10;;;179.50;2252.80;;;;;;5051789;28;20033;-63
2023/12/21 05:46:07;;;;;;;6.20;3.00;;;179.40;2252.80;;;;;;5051351;28;20032;-63
2023/12/21 05:48:33;;;;;;;9.88;5.57;;;179.50;2252.80;;;;;;5050732;28;20029;-67
2023/12/21 05:50:59;;;;;;;10.50;6.05;;;179.40;2252.80;;;;;;5050750;28;20064;-63
2023/12/21 05:53:25;;;;;;;10.60;6.88;;;179.30;2252.80;;;;;;5051083;28;20053;-64
2023/12/21 05:55:51;;;;;;;18.65;10.05;;;154.50;2252.80;;;;;;5051417;28;20490;-63
2023/12/21 05:58:17;;;;;;;14.73;7.97;;;154.30;2252.80;;;;;;5051220;28;20028;-63
2023/12/21 06:00:43;;;;;;;12.35;7.05;;;154.30;2252.80;;;;;;5051058;28;20032;-63
2023/12/21 06:03:09;;;;;;;41.55;22.00;;;154.20;2252.80;;;;;;5051137;28;20025;-62
2023/12/21 06:05:35;;;;;;;65.97;39.88;;;154.30;2252.80;;;;;;5050748;28;20017;-65
2023/12/21 06:08:00;;;;;;;52.33;31.77;;;154.50;2252.80;;;;;;5051390;28;20039;-68
2023/12/21 06:10:26;;;;;;;56.10;30.08;;;154.50;2252.80;;;;;;5050905;28;20025;-64
2023/12/21 06:12:52;;;;;;;67.00;39.05;;;179.20;2252.80;;;;;;5051393;28;20037;-64
2023/12/21 06:15:17;;;;;;;69.97;40.83;;;179.40;2252.80;;;;;;5064189;28;20463;-64
2023/12/21 06:17:43;;;;;;;90.57;56.65;;;179.50;2252.80;;;;;;5051349;28;20027;-64
2023/12/21 06:20:09;;;;;;;91.30;55.55;;;179.40;2252.80;;;;;;5051127;28;20371;-64
2023/12/21 06:22:35;;;;;;;55.15;36.67;;;179.40;2252.80;;;;;;5050770;28;20025;-65
2023/12/21 06:25:01;;;;;;;43.45;28.48;;;179.40;2252.80;;;;;;5051199;28;20367;-65
2023/12/21 06:27:27;;;;;;;37.35;25.90;;;179.40;2252.80;;;;;;5050624;28;20530;-64
2023/12/21 06:29:52;;;;;;;119.72;75.70;;;179.40;2252.80;;;;;;5050797;28;20021;-64
2023/12/21 06:32:18;;;;;;;113.93;69.80;;;179.30;2252.80;;;;;;5050622;28;20052;-63
2023/12/21 06:34:44;;;;;;;81.28;50.42;;;179.30;2252.80;;;;;;5050663;28;20128;-63
2023/12/21 06:37:09;;;;;;;42.03;26.85;;;179.30;2252.80;;;;;;5050048;28;20021;-63
2023/12/21 06:39:35;;;;;;;31.50;20.50;;;179.30;2252.80;;;;;;5050622;28;20029;-65
2023/12/21 06:42:01;;;;;;;24.13;13.43;;;179.40;2252.80;;;;;;5050719;28;20092;-68
2023/12/21 06:44:28;;;;;;;54.10;34.28;;;179.40;2252.80;;;;;;5049364;28;20053;-64
2023/12/21 06:46:54;;;;;;;29.30;18.25;;;179.40;2252.80;;;;;;5050110;28;20036;-70
2023/12/21 06:49:20;;;;;;;37.13;24.30;;;179.40;2252.80;;;;;;5050593;28;20021;-63
2023/12/21 06:51:47;;;;;;;43.42;30.13;;;179.50;2252.80;;;;;;5049180;28;20033;-66
2023/12/21 06:54:13;;;;;;;42.92;28.00;;;179.60;2252.80;;;;;;5050194;28;20068;-64
2023/12/21 06:56:38;;;;;;;64.93;41.95;;;179.60;2252.80;;;;;;5050201;28;20025;-64
2023/12/21 06:59:04;;;;;;;85.38;57.42;;;179.70;2252.80;;;;;;5049954;28;20046;-63
2023/12/21 07:01:31;;;;;;;81.10;54.38;;;179.70;2252.80;;;;;;5050601;28;20021;-66
2023/12/21 07:03:57;;;;;;;63.97;41.70;;;180.00;2252.80;;;;;;5047986;28;20475;-63
2023/12/21 07:06:25;;;;;;;43.78;31.15;;;179.90;2252.80;;;;;;5050393;28;20028;-69
2023/12/21 07:08:51;;;;;;;49.50;31.80;;;180.00;2252.80;;;;;;5050392;28;20053;-63
2023/12/21 07:11:17;;;;;;;37.03;27.45;;;180.00;2252.80;;;;;;5049407;28;20114;-70
2023/12/21 07:13:44;;;;;;;41.83;26.92;;;180.10;2252.80;;;;;;5044145;28;20176;-62
2023/12/21 07:16:11;;;;;;;33.58;21.70;;;180.00;2252.80;;;;;;5033634;28;20025;-66
2023/12/21 07:18:37;;;;;;;56.38;28.30;;;180.00;2252.80;;;;;;5038595;28;20483;-63
2023/12/21 07:21:03;;;;;;;54.25;30.58;;;204.80;2252.80;;;;;;5041689;28;20128;-62
2023/12/21 07:23:29;;;;;;;27.30;14.25;;;204.90;2252.80;;;;;;5048817;28;20739;-66
2023/12/21 07:25:56;;;;;;;44.17;25.13;;;205.00;2252.80;;;;;;5048582;28;20039;-61
2023/12/21 07:28:22;;;;;;;70.03;51.58;;;205.10;2252.80;;;;;;5042361;28;20099;-63
2023/12/21 07:30:48;;;;;;;100.40;71.30;;;205.30;2252.80;;;;;;5045264;28;20029;-62
2023/12/21 07:33:14;;;;;;;84.00;67.55;;;205.50;2252.80;;;;;;5046563;28;20043;-63
2023/12/21 07:35:39;;;;;;;31.98;24.15;;;205.50;2252.80;;;;;;5038186;28;20041;-62
2023/12/21 07:38:06;;;;;;;35.33;23.25;;;230.40;2252.80;;;;;;5042596;28;20036;-63
2023/12/21 07:40:32;;;;;;;53.28;34.17;;;230.40;2252.80;;;;;;5049810;28;20017;-67
2023/12/21 07:42:58;;;;;;;22.50;16.52;;;230.60;2252.80;;;;;;5042502;28;20353;-74
2023/12/21 07:45:24;;;;;;;20.00;13.05;;;230.40;2252.80;;;;;;5049724;28;20021;-73
2023/12/21 07:47:49;;;;;;;23.00;16.55;;;230.40;2252.80;;;;;;5047717;28;20478;-69
2023/12/21 07:50:15;;;;;;;24.45;15.63;;;230.40;2252.80;;;;;;5040737;28;20059;-62
2023/12/21 07:52:41;;;;;;;34.85;23.50;;;230.40;2252.80;;;;;;5049053;28;20175;-72
2023/12/21 07:55:07;;;;;;;53.72;27.40;;;230.50;2252.80;;;;;;5049806;28;20029;-62
2023/12/21 07:57:33;;;;;;;53.72;35.65;;;230.60;2252.80;;;;;;5049395;28;20475;-67
2023/12/21 07:59:59;;;;;;;51.60;32.70;;;230.70;2252.80;;;;;;5049361;28;20036;-73
2023/12/21 08:02:25;;;;;;;44.47;30.90;;;230.80;2252.80;;;;;;5048929;28;20028;-62
2023/12/21 08:04:51;;;;;;;54.80;38.22;;;230.90;2252.80;;;;;;5049267;28;20036;-73
2023/12/21 08:07:16;;;;;;;63.78;40.80;;;231.10;2252.80;;;;;;5049052;28;20017;-73
2023/12/21 08:09:42;;;;;;;33.05;25.58;;;231.20;2252.80;;;;;;5048953;28;20088;-64
2023/12/21 08:12:08;;;;;;;36.78;24.77;;;256.10;2252.80;;;;;;5041837;28;20108;-68
2023/12/21 08:14:37;;;;;;;152.75;111.22;;;256.30;2252.80;;;;;;5048753;28;20119;-68
2023/12/21 08:17:09;;;;;;;96.05;71.78;;;231.00;2252.80;;;;;;5048976;28;20106;-70
2023/12/21 08:19:36;;;;;;;111.13;73.10;;;230.50;2252.80;;;;;;5048997;28;20442;-72
2023/12/21 08:22:02;;;;;;;80.85;54.97;;;230.40;2252.80;;;;;;5049093;28;20059;-69
2023/12/21 08:24:28;;;;;;;85.20;61.92;;;230.60;2252.80;;;;;;5035120;28;20057;-72
2023/12/21 08:26:54;;;;;;;107.60;73.57;;;231.00;2252.80;;;;;;5036682;28;20108;-74
2023/12/21 08:29:19;;;;;;;97.20;65.75;;;231.30;2252.80;;;;;;5040222;28;20490;-72
2023/12/21 08:31:45;;;;;;;88.18;62.47;;;256.40;2252.80;;;;;;5035442;28;20033;-73
2023/12/21 08:34:12;;;;;;;180.15;133.00;;;256.40;2252.80;;;;;;5048997;28;20045;-63
2023/12/21 08:36:38;;;;;;;149.25;107.40;;;256.70;2252.80;;;;;;5048825;28;20021;-70
2023/12/21 08:39:04;;;;;;;137.95;100.13;;;256.60;2252.80;;;;;;5049185;28;20029;-68
2023/12/21 08:41:30;;;;;;;192.32;134.13;;;256.90;2252.80;;;;;;5049101;28;20074;-67
2023/12/21 08:43:55;;;;;;;171.80;113.75;;;281.60;2278.40;;;;;;5040908;28;20029;-72
2023/12/21 08:46:22;;;;;;;133.77;95.50;;;281.60;2278.40;;;;;;5048627;28;20036;-73
2023/12/21 08:48:47;;;;;;;123.82;86.05;;;281.80;2278.40;;;;;;5036860;28;20084;-72
2023/12/21 08:51:14;;;;;;;120.32;86.10;;;281.90;2278.40;;;;;;5046432;28;20036;-67
2023/12/21 08:53:40;;;;;;;142.02;104.75;;;281.70;2278.40;;;;;;5049531;28;20080;-73
2023/12/21 08:56:06;;;;;;;175.75;131.68;;;281.70;2278.40;;;;;;5041821;28;20057;-69
2023/12/21 08:58:32;;;;;;;262.45;184.05;;;256.30;2252.80;;;;;;5052414;28;20029;-69
2023/12/21 09:00:58;;;;;;;243.90;177.75;;;231.30;2252.80;;;;;;5043149;28;20151;-72
2023/12/21 09:03:24;;;;;;;240.68;175.27;;;231.00;2252.80;;;;;;5044579;28;20135;-71
2023/12/21 09:05:50;;;;;;;207.80;150.73;;;230.90;2252.80;;;;;;5052341;28;20472;-71
2023/12/21 09:08:16;;;;;;;187.45;129.98;;;231.00;2252.80;;;;;;5052170;28;20167;-71
2023/12/21 09:10:42;;;;;;;180.70;130.38;;;231.30;2252.80;;;;;;5036020;28;20037;-69
2023/12/21 09:13:08;;;;;;;170.02;126.15;;;256.30;2252.80;;;;;;5040617;28;20123;-65
2023/12/21 09:15:36;;;;;;;171.82;125.10;;;281.90;2278.40;;;;;;5052183;28;20029;-72
2023/12/21 09:18:03;;;;;;;192.38;129.90;;;256.90;2252.80;;;;;;5052415;28;20033;-71
2023/12/21 09:20:28;;;;;;;179.88;130.85;;;307.80;2304.00;;;;;;5024039;28;20466;-71
2023/12/21 09:22:54;;;;;;;210.07;143.73;;;308.10;2252.80;;;;;;5042086;28;20100;-63
2023/12/21 09:25:20;;;;;;;223.02;167.18;;;308.10;2227.20;;;;;;5051338;28;20166;-72
2023/12/21 09:27:46;;;;;;;232.55;170.52;;;332.80;2252.80;;;;;;5038728;28;20103;-71
2023/12/21 09:30:12;;;;;;;188.50;138.18;;;333.20;2227.20;;;;;;5050996;28;20112;-62
2023/12/21 09:32:40;;;;;;;158.05;120.80;;;308.00;2201.60;;;;;;5051252;28;20060;-61
2023/12/21 09:35:06;;;;;;;165.90;125.72;;;282.40;2252.80;;;;;;5049232;28;20356;-70
2023/12/21 09:37:32;;;;;;;139.32;103.88;;;281.60;2278.40;;;;;;5039134;28;20025;-69
2023/12/21 09:39:58;;;;;;;147.95;104.63;;;256.40;2252.80;;;;;;5046817;28;20032;-72
2023/12/21 09:42:27;;;;;;;152.82;112.32;;;256.00;2252.80;;;;;;5050787;28;20021;-64
2023/12/21 09:44:53;;;;;;;198.18;136.98;;;231.30;2252.80;;;;;;5051515;28;20039;-61
2023/12/21 09:47:22;;;;;;;136.75;93.40;;;231.20;2252.80;;;;;;5051278;28;20024;-73
2023/12/21 09:49:50;;;;;;;117.53;82.28;;;231.30;2252.80;;;;;;5050870;28;20029;-71
2023/12/21 09:52:18;;;;;;;100.43;72.88;;;231.20;2252.80;;;;;;5049502;28;20144;-65
2023/12/21 09:54:45;;;;;;;100.97;68.55;;;231.30;2252.80;;;;;;5050766;28;20037;-71
2023/12/21 09:57:14;;;;;;;102.80;73.88;;;256.00;2252.80;;;;;;5048863;28;20025;-65
2023/12/21 09:59:41;;;;;;;78.70;56.33;;;231.30;2252.80;;;;;;5039661;28;20029;-71
2023/12/21 10:02:12;;;;;;;81.10;53.63;;;231.30;2252.80;;;;;;5049299;28;20032;-63
2023/12/21 10:04:44;;;;;;;79.93;44.67;;;256.00;2252.80;;;;;;5038617;28;20021;-69
2023/12/21 10:07:10;;;;;;;83.25;53.72;;;256.00;2252.80;;;;;;5032941;28;20029;-69
2023/12/21 10:09:40;;;;;;;97.82;58.25;;;256.00;2252.80;;;;;;5032932;28;20034;-71
2023/12/21 10:12:09;;;;;;;108.57;59.72;;;256.20;2252.80;;;;;;5038772;28;20029;-71
2023/12/21 10:14:34;;;;;;;90.50;52.40;;;256.20;2252.80;;;;;;5050876;28;20037;-63
2023/12/21 10:17:01;;;;;;;170.85;93.43;;;256.10;2252.80;;;;;;5050744;28;20024;-71
2023/12/21 10:19:27;;;;;;;211.80;109.35;;;256.10;2252.80;;;;;;5047457;28;20035;-72
2023/12/21 10:21:53;;;;;;;59.90;40.38;;;256.20;2252.80;;;;;;5041980;28;20025;-68
2023/12/21 10:24:19;;;;;;;54.70;35.30;;;256.20;2252.80;;;;;;5037473;28;20082;-66
2023/12/21 10:26:47;;;;;;;94.35;54.83;;;256.00;2252.80;;;;;;5050732;28;20029;-62
2023/12/21 10:29:17;;;;;;;56.25;32.05;;;256.00;2252.80;;;;;;5050936;28;20364;-68
2023/12/21 10:31:48;;;;;;;98.80;52.58;;;256.00;2252.80;;;;;;5050700;28;20033;-62
2023/12/21 10:34:17;;;;;;;169.70;76.22;;;256.00;2252.80;;;;;;5050809;28;20040;-63
2023/12/21 10:36:44;;;;;;;73.25;39.22;;;256.10;2252.80;;;;;;5050843;28;20013;-62
2023/12/21 10:39:15;;;;;;;163.45;73.88;;;256.10;2252.80;;;;;;5050781;28;20025;-70
2023/12/21 10:41:44;;;;;;;95.93;55.03;;;256.30;2252.80;;;;;;5050952;28;20025;-62
2023/12/21 10:44:15;;;;;;;73.38;36.72;;;256.80;2252.80;;;;;;5050454;28;20052;-63
2023/12/21 10:46:41;;;;;;;77.15;40.22;;;256.70;2252.80;;;;;;5050456;28;20545;-70
2023/12/21 10:49:10;;;;;;;62.67;34.33;;;256.80;2252.80;;;;;;5050739;28;20159;-70
2023/12/21 10:51:39;;;;;;;76.30;43.20;;;256.80;2252.80;;;;;;5050110;28;20063;-64
2023/12/21 10:54:09;;;;;;;39.78;21.10;;;256.80;2252.80;;;;;;5049972;28;20045;-62
2023/12/21 10:56:39;;;;;;;38.83;23.40;;;256.80;2252.80;;;;;;5050687;28;20100;-63
2023/12/21 10:59:08;;;;;;;33.92;24.20;;;281.60;2278.40;;;;;;5050163;28;20126;-68
2023/12/21 11:01:34;;;;;;;34.72;21.17;;;281.70;2252.80;;;;;;5050759;28;20435;-63
2023/12/21 11:04:01;;;;;;;33.17;23.10;;;281.90;2227.20;;;;;;5050016;28;20060;-71
2023/12/21 11:06:27;;;;;;;26.88;18.15;;;282.00;2201.60;;;;;;5050199;28;20059;-70
2023/12/21 11:08:57;;;;;;;30.02;18.88;;;282.00;2201.60;;;;;;5049792;28;20423;-71
2023/12/21 11:11:24;;;;;;;26.27;16.33;;;281.80;2201.60;;;;;;5041447;28;20039;-68
2023/12/21 11:13:54;;;;;;;27.17;17.95;;;281.80;2201.60;;;;;;5040814;28;20037;-69
2023/12/21 11:16:27;;;;;;;16.98;13.32;;;281.90;2201.60;;;;;;5044848;28;20029;-69
2023/12/21 11:18:57;;;;;;;27.05;17.73;;;282.00;2150.40;;;;;;5037630;28;20040;-69
2023/12/21 11:21:26;;;;;;;36.63;21.35;;;281.90;2150.40;;;;;;5046055;28;20028;-67
2023/12/21 11:23:52;;;;;;;31.42;18.35;;;281.90;2124.80;;;;;;5033774;28;20038;-64
2023/12/21 11:26:25;;;;;;;59.05;33.95;;;282.00;2124.80;;;;;;5049772;28;20028;-72
2023/12/21 11:28:51;;;;;;;47.17;28.48;;;282.20;2099.20;;;;;;5049987;28;20021;-69
2023/12/21 11:31:18;;;;;;;37.42;21.77;;;282.10;2099.20;;;;;;5049589;28;20025;-70
2023/12/21 11:33:45;;;;;;;15.18;10.32;;;282.20;2099.20;;;;;;5049426;28;20029;-66
2023/12/21 11:36:22;;;;;;;35.63;21.88;;;282.20;2048.00;;;;;;5049519;28;20032;-70
2023/12/21 11:38:51;;;;;;;25.50;17.30;;;282.30;2048.00;;;;;;5049183;28;20024;-71
2023/12/21 11:41:20;;;;;;;41.80;23.55;;;282.40;2022.40;;;;;;5049787;28;20033;-71
2023/12/21 11:44:03;;;;;;;24.27;17.42;;;282.50;1971.20;;;;;;5036546;28;20025;-71
2023/12/21 11:46:32;;;;;;;41.45;24.63;;;307.20;1996.80;;;;;;5049394;28;20025;-71
2023/12/21 11:48:58;;;;;;;45.72;28.73;;;282.50;1945.60;;;;;;5049436;28;20025;-62
2023/12/21 11:51:24;;;;;;;22.80;15.88;;;282.50;1945.60;;;;;;5049002;28;20532;-71
2023/12/21 11:53:50;;;;;;;36.92;23.08;;;282.50;1945.60;;;;;;5049419;28;20388;-70
2023/12/21 11:56:16;;;;;;;24.75;16.75;;;282.40;1945.60;;;;;;5049005;28;20028;-67